Darstellungsparameter: Aktuell verwendete Einstellungen:
Skalierung der Graphiken ... ?
xyx+y,   Skalierungsfaktor:      Skalierung: Modus: x, Faktor: 1
Darstellungszeitraum ... ?
Vom - - bis: - -   Zeitraum: 02.10.2022 - 03.10.2022
Min/Max/Avg-Anzeige ... ?
Zeige MMA aktuell
Zeige MMA Monat
Zeige MMA alles
Zeige --A aktuell
Zeige --A Monat
Zeige --A alles
Keine MMA-Anzeige
MMA:
Keine MMA-Graphiken
MMA-Basis: 02.10.2022 - 03.10.2022
Quicknavigation für Darstellung... ?
Tage:      1T, 2T, 3T, 5T -1T -2T -3T -5T +1T +2T +3T +5T
Wochen: 1W, 2W, 3W -1W -2W -3W +1W +2W +3W
Monate: 1M, 3M, 6M -1M -3M -6M +1M +3M +6M
Jahre:    1J, 3J, 5J, 10J -1J -3J -5J -10J +1J +3J +5J +10J
Nutze für die Darstellung ... ?
Originaldaten oder Mittelwerte auf ...
Stundenbasis Tagesbasis Wochenbasis
Monatsbasis Jahresbasis      Datenbasis: Original-Daten
Darstellen als:
Statistik (Auto) Statistik J:M      Darstellung:

Der gewünschte Datumsbereich war nicht gültig/verfügbar und wurde korrigiert....
Das angegebene Enddatum (18.11.2022 23:59:59) liegt in der Zukunft.
Das angegebene Startdatum (18.11.2022 00:00:00) liegt in der Zukunft.


Zur Graphik,    zurück zur Übersicht aller Sensoren.
 
Tabellarische Datenbersicht: ?
 
Sensor: Nr:Datum:Temp:Abs-Feuchte:Windchill:Wind:
Aussen-T/F 1 02-10-2022 02:00:00 12.7 C 10.58 g/m*3 12.7 C 12.9 km/h
2 02-10-2022 02:05:00 12.8 C 10.64 g/m*3 12.8 C 11.3 km/h
3 02-10-2022 02:10:00 12.8 C 10.53 g/m*3 12.8 C 11.3 km/h
4 02-10-2022 02:15:00 12.9 C 10.59 g/m*3 12.9 C 8.1 km/h
5 02-10-2022 02:20:00 13 C 10.66 g/m*3 13 C 6.4 km/h
6 02-10-2022 02:25:00 13 C 10.66 g/m*3 13 C 8.1 km/h
7 02-10-2022 02:30:00 13.1 C 10.73 g/m*3 13.1 C 11.3 km/h
8 02-10-2022 02:35:00 13.1 C 10.73 g/m*3 13.1 C 8.1 km/h
9 02-10-2022 02:40:00 13.1 C 10.73 g/m*3 13.1 C 14.5 km/h
10 02-10-2022 02:45:00 13.1 C 10.61 g/m*3 13.1 C 3.2 km/h
11 02-10-2022 02:50:00 13.1 C 10.61 g/m*3 13.1 C 6.4 km/h
12 02-10-2022 02:55:00 13.1 C 10.61 g/m*3 13.1 C 6.4 km/h
13 02-10-2022 03:00:00 13.1 C 10.61 g/m*3 13.1 C 12.9 km/h
14 02-10-2022 03:05:00 13.2 C 10.68 g/m*3 13.2 C 14.5 km/h
15 02-10-2022 03:10:00 13.4 C 10.69 g/m*3 13.4 C 11.3 km/h
16 02-10-2022 03:15:00 13.4 C 10.69 g/m*3 13.4 C 4.8 km/h
17 02-10-2022 03:20:00 13.4 C 10.69 g/m*3 13.4 C 8.1 km/h
18 02-10-2022 03:25:00 13.4 C 10.69 g/m*3 13.4 C 11.3 km/h
19 02-10-2022 03:30:00 13.4 C 10.69 g/m*3 13.4 C 9.7 km/h
20 02-10-2022 03:35:00 13.5 C 10.76 g/m*3 13.5 C 16.1 km/h
21 02-10-2022 03:40:00 13.6 C 10.71 g/m*3 13.6 C 9.7 km/h
22 02-10-2022 03:45:00 13.6 C 10.71 g/m*3 13.6 C 11.3 km/h
23 02-10-2022 03:50:00 13.6 C 10.71 g/m*3 13.6 C 8.1 km/h
24 02-10-2022 03:55:00 13.6 C 10.71 g/m*3 13.6 C 12.9 km/h
25 02-10-2022 04:00:00 13.6 C 10.71 g/m*3 13.6 C 6.4 km/h
Sensor: Nr:Datum:Temp:Abs-Feuchte:Windchill:Wind:
Aussen-T/F 26 02-10-2022 04:05:00 13.5 C 10.64 g/m*3 13.5 C 6.4 km/h
27 02-10-2022 04:10:00 13.4 C 10.58 g/m*3 13.4 C 3.2 km/h
28 02-10-2022 04:15:00 13.4 C 10.58 g/m*3 13.4 C 6.4 km/h
29 02-10-2022 04:20:00 13.3 C 10.51 g/m*3 13.3 C 6.4 km/h
30 02-10-2022 04:25:00 13.3 C 10.63 g/m*3 13.3 C 4.8 km/h
31 02-10-2022 04:30:00 13.2 C 10.56 g/m*3 13.2 C 8.1 km/h
32 02-10-2022 04:35:00 13.3 C 10.63 g/m*3 13.3 C 8.1 km/h
33 02-10-2022 04:40:00 13.3 C 10.63 g/m*3 13.3 C 8.1 km/h
34 02-10-2022 04:45:00 13.3 C 10.63 g/m*3 13.3 C 6.4 km/h
35 02-10-2022 04:50:00 13.3 C 10.63 g/m*3 13.3 C 4.8 km/h
36 02-10-2022 04:55:00 13.3 C 10.63 g/m*3 13.3 C 6.4 km/h
37 02-10-2022 05:00:00 13.3 C 10.63 g/m*3 13.3 C 8.1 km/h
38 02-10-2022 05:05:00 13.3 C 10.63 g/m*3 13.3 C 4.8 km/h
39 02-10-2022 05:10:00 13.3 C 10.63 g/m*3 13.3 C 9.7 km/h
40 02-10-2022 05:15:00 13.3 C 10.63 g/m*3 13.3 C 9.7 km/h
41 02-10-2022 05:20:00 13.4 C 10.69 g/m*3 13.4 C 14.5 km/h
42 02-10-2022 05:25:00 13.5 C 10.76 g/m*3 13.5 C 9.7 km/h
43 02-10-2022 05:30:00 13.6 C 10.83 g/m*3 13.6 C 9.7 km/h
44 02-10-2022 05:35:00 13.6 C 10.83 g/m*3 13.6 C 9.7 km/h
45 02-10-2022 05:40:00 13.6 C 10.71 g/m*3 13.6 C 4.8 km/h
46 02-10-2022 05:45:00 13.6 C 10.71 g/m*3 13.6 C 3.2 km/h
47 02-10-2022 05:50:00 13.6 C 10.71 g/m*3 13.6 C 9.7 km/h
48 02-10-2022 05:55:00 13.7 C 10.78 g/m*3 13.7 C 9.7 km/h
49 02-10-2022 06:00:00 13.7 C 10.78 g/m*3 13.7 C 11.3 km/h
50 02-10-2022 06:05:00 13.7 C 10.78 g/m*3 13.7 C 8.1 km/h
Sensor: Nr:Datum:Temp:Abs-Feuchte:Windchill:Wind:
Aussen-T/F 51 02-10-2022 06:10:00 13.7 C 10.78 g/m*3 13.7 C 6.4 km/h
52 02-10-2022 06:15:00 13.7 C 10.78 g/m*3 13.7 C 3.2 km/h
53 02-10-2022 06:20:00 13.7 C 10.78 g/m*3 13.7 C 8.1 km/h
54 02-10-2022 06:25:00 13.7 C 10.78 g/m*3 13.7 C 11.3 km/h
55 02-10-2022 06:30:00 13.7 C 10.78 g/m*3 13.7 C 9.7 km/h
56 02-10-2022 06:35:00 13.7 C 10.78 g/m*3 13.7 C 9.7 km/h
57 02-10-2022 06:40:00 13.7 C 10.78 g/m*3 13.7 C 1.6 km/h
58 02-10-2022 06:45:00 13.7 C 10.78 g/m*3 13.7 C 3.2 km/h
59 02-10-2022 06:50:00 13.7 C 10.78 g/m*3 13.7 C 4.8 km/h
60 02-10-2022 06:55:00 13.6 C 10.71 g/m*3 13.6 C 6.4 km/h
61 02-10-2022 07:00:00 13.6 C 10.71 g/m*3 13.6 C 14.5 km/h
62 02-10-2022 07:05:00 13.7 C 10.78 g/m*3 13.7 C 11.3 km/h
63 02-10-2022 07:10:00 13.7 C 10.78 g/m*3 13.7 C 12.9 km/h
64 02-10-2022 07:15:00 13.8 C 10.84 g/m*3 13.8 C 9.7 km/h
65 02-10-2022 07:20:00 13.9 C 10.79 g/m*3 13.9 C 16.1 km/h
66 02-10-2022 07:25:00 13.9 C 10.79 g/m*3 13.9 C 11.3 km/h
67 02-10-2022 07:30:00 14 C 10.86 g/m*3 14 C 8.1 km/h
68 02-10-2022 07:35:00 13.9 C 10.91 g/m*3 13.9 C 11.3 km/h
69 02-10-2022 07:40:00 13.9 C 10.91 g/m*3 13.9 C 11.3 km/h
70 02-10-2022 07:45:00 13.9 C 10.91 g/m*3 13.9 C 11.3 km/h
71 02-10-2022 07:50:00 13.8 C 10.84 g/m*3 13.8 C 6.4 km/h
72 02-10-2022 07:55:00 13.8 C 10.96 g/m*3 13.8 C 12.9 km/h
73 02-10-2022 08:00:00 13.7 C 10.89 g/m*3 13.7 C 12.9 km/h
74 02-10-2022 08:05:00 13.7 C 10.89 g/m*3 13.7 C 17.7 km/h
75 02-10-2022 08:10:00 13.6 C 10.83 g/m*3 13.6 C 14.5 km/h
Sensor: Nr:Datum:Temp:Abs-Feuchte:Windchill:Wind:
Aussen-T/F 76 02-10-2022 08:15:00 13.6 C 10.95 g/m*3 13.6 C 11.3 km/h
77 02-10-2022 08:20:00 13.6 C 10.95 g/m*3 13.6 C 9.7 km/h
78 02-10-2022 08:25:00 13.6 C 10.95 g/m*3 13.6 C 4.8 km/h
79 02-10-2022 08:30:00 13.6 C 10.95 g/m*3 13.6 C 4.8 km/h
80 02-10-2022 08:35:00 13.5 C 10.88 g/m*3 13.5 C 4.8 km/h
81 02-10-2022 08:40:00 13.5 C 10.88 g/m*3 13.5 C 6.4 km/h
82 02-10-2022 08:45:00 13.5 C 10.88 g/m*3 13.5 C 8.1 km/h
83 02-10-2022 08:50:00 13.5 C 10.99 g/m*3 13.5 C 9.7 km/h
84 02-10-2022 08:55:00 13.4 C 10.93 g/m*3 13.4 C 9.7 km/h
85 02-10-2022 09:00:00 13.5 C 10.99 g/m*3 13.5 C 6.4 km/h
86 02-10-2022 09:05:00 13.4 C 10.93 g/m*3 13.4 C 8.1 km/h
87 02-10-2022 09:10:00 13.4 C 10.93 g/m*3 13.4 C 8.1 km/h
88 02-10-2022 09:15:00 13.4 C 10.93 g/m*3 13.4 C 9.7 km/h
89 02-10-2022 09:20:00 13.4 C 10.93 g/m*3 13.4 C 8.1 km/h
90 02-10-2022 09:25:00 13.5 C 10.99 g/m*3 13.5 C 11.3 km/h
91 02-10-2022 09:30:00 13.5 C 10.99 g/m*3 13.5 C 12.9 km/h
92 02-10-2022 09:35:00 13.5 C 10.99 g/m*3 13.5 C 12.9 km/h
93 02-10-2022 09:40:00 13.5 C 10.99 g/m*3 13.5 C 6.4 km/h
94 02-10-2022 09:45:00 13.5 C 10.99 g/m*3 13.5 C 12.9 km/h
95 02-10-2022 09:50:00 13.5 C 10.99 g/m*3 13.5 C 12.9 km/h
96 02-10-2022 09:55:00 13.6 C 11.06 g/m*3 13.6 C 8.1 km/h
97 02-10-2022 10:00:00 13.6 C 11.06 g/m*3 13.6 C 11.3 km/h
98 02-10-2022 10:05:00 13.6 C 11.06 g/m*3 13.6 C 8.1 km/h
99 02-10-2022 10:10:00 13.6 C 11.06 g/m*3 13.6 C 8.1 km/h
100 02-10-2022 10:15:00 13.6 C 11.06 g/m*3 13.6 C 9.7 km/h
Sensor: Nr:Datum:Temp:Abs-Feuchte:Windchill:Wind:
Aussen-T/F 101 02-10-2022 10:20:00 13.7 C 11.13 g/m*3 13.7 C 6.4 km/h
102 02-10-2022 10:25:00 13.6 C 11.06 g/m*3 13.6 C 9.7 km/h
103 02-10-2022 10:30:00 13.6 C 11.06 g/m*3 13.6 C 11.3 km/h
104 02-10-2022 10:35:00 13.6 C 11.06 g/m*3 13.6 C 6.4 km/h
105 02-10-2022 10:40:00 13.6 C 11.06 g/m*3 13.6 C 9.7 km/h
106 02-10-2022 10:45:00 13.6 C 11.06 g/m*3 13.6 C 11.3 km/h
107 02-10-2022 10:50:00 13.6 C 11.06 g/m*3 13.6 C 12.9 km/h
108 02-10-2022 10:55:00 13.6 C 11.06 g/m*3 13.6 C 11.3 km/h
109 02-10-2022 11:00:00 13.6 C 11.06 g/m*3 13.6 C 11.3 km/h
110 02-10-2022 11:05:00 13.6 C 11.18 g/m*3 13.6 C 4.8 km/h
111 02-10-2022 11:10:00 13.6 C 11.18 g/m*3 13.6 C 8.1 km/h
112 02-10-2022 11:15:00 13.7 C 11.25 g/m*3 13.7 C 9.7 km/h
113 02-10-2022 11:20:00 13.7 C 11.25 g/m*3 13.7 C 9.7 km/h
114 02-10-2022 11:25:00 13.6 C 11.18 g/m*3 13.6 C 11.3 km/h
115 02-10-2022 11:30:00 13.6 C 11.06 g/m*3 13.6 C 8.1 km/h
116 02-10-2022 11:35:00 13.6 C 11.06 g/m*3 13.6 C 9.7 km/h
117 02-10-2022 11:40:00 13.6 C 11.18 g/m*3 13.6 C 8.1 km/h
118 02-10-2022 11:45:00 13.7 C 11.25 g/m*3 13.7 C 8.1 km/h
119 02-10-2022 11:50:00 13.7 C 11.25 g/m*3 13.7 C 4.8 km/h
120 02-10-2022 11:55:00 13.8 C 11.32 g/m*3 13.8 C 4.8 km/h
121 02-10-2022 12:00:00 13.8 C 11.32 g/m*3 13.8 C 6.4 km/h
122 02-10-2022 12:05:00 13.9 C 11.39 g/m*3 13.9 C 11.3 km/h
123 02-10-2022 12:10:00 13.9 C 11.39 g/m*3 13.9 C 11.3 km/h
124 02-10-2022 12:15:00 14 C 11.46 g/m*3 14 C 6.4 km/h
125 02-10-2022 12:20:00 14.1 C 11.53 g/m*3 14.1 C 9.7 km/h

Legende:
   Min
   Max


Maximal/Minimal-Werte vom 02.10.2022 - 03.10.2022

Sensor Min Max Avg
Temp
(Aussen-T/F)
12.7 °C
02-10-2022  02:00:00
14.1 °C
02-10-2022  12:20:00
13.52 °C
Abs-Feuchte
(Aussen-T/F)
10.51 g/m*3
02-10-2022  04:20:00
11.53 g/m*3
02-10-2022  12:20:00
10.78 g/m*3
Windchill
(Aussen-T/F)
12.7 C
02-10-2022  02:00:00
14.1 C
02-10-2022  12:20:00
13.42 C

Die Daten stammen von einer Davis Vantage Pro 2 Wetter-Station und werden unter Linux mit der Software wview2wettercgi und aufbereitet. Alle Angaben erfolgen ohne Gewähr für ihre Vollständigkeit oder Richtigkeit.
Kontakt: Rainer Krienke krienke@uni-koblenz.de . Meine Webseiten an der Uni Koblenz oder privat.
Version: $Revision: 0.78 $